• Join FlightAware (Why Join?)
  • Login
  • US Flag 
06:04AM EST


 

Airport Tracker/Info


-or-


 

Live Flight TrackerFlight Track Log ✈ N45NS ✈ 28-Oct-2013 ✈ KISM - KPWK

Flight Track Log - Related Links

Times and Time Zones

All times are in EDT time to prevent confusion due to time zone crossing. See the N45NS flight status page for this flight to view local times or setup timezone preferences in your user account.

Time Position Orientation Groundspeed Altitude Reporting Facility
EDT Latitude Longitude Course Direction KTS MPH feet Rate Location/Type
10:46AM 28.2833 -81.4333 221° Southwest 161 185 600  Level Orlando TRACON
10:47AM 28.2333 -81.4833 221° Southwest 259 298 2,300 2,100 Climbing Orlando TRACON
10:48AM 28.2500 -81.5667 283° West 282 325 5,500 3,420 Climbing Orlando TRACON
10:49AM 28.3167 -81.5833 348° North 261 300 9,200 3,000 Climbing Orlando TRACON
10:51AM 28.4958 -81.5864 359° North 290 334 15,400 2,460 Climbing Jacksonville Center
10:52AM 28.5772 -81.5736 North 290 334 17,300 1,920 Climbing Jacksonville Center
10:53AM 28.6689 -81.5606 North 303 349 19,300 2,160 Climbing Jacksonville Center
10:54AM 28.7564 -81.5544 North 317 365 21,700 1,800 Climbing Jacksonville Center
10:55AM 28.8444 -81.5722 350° North 310 357 23,000 1,140 Climbing Jacksonville Center
10:56AM 28.9386 -81.5972 347° North 324 373 24,000 1,500 Climbing Jacksonville Center
10:57AM 29.0306 -81.6172 349° North 336 387 26,100 1,560 Climbing Jacksonville Center
10:58AM 29.1267 -81.6375 350° North 336 387 27,100 1,140 Climbing Jacksonville Center
10:59AM 29.2019 -81.6531 350° North 341 392 28,400 1,620 Climbing Jacksonville Center
11:00AM 29.3131 -81.6850 346° North 335 386 30,400 1,260 Climbing Jacksonville Center
11:01AM 29.4072 -81.7053 349° North 335 386 31,000 300 Climbing Jacksonville Center
11:02AM 29.5158 -81.7183 354° North 359 413 31,000  Level Jacksonville Center
11:03AM 29.6325 -81.6931 11° North 394 453 31,000  Level Jacksonville Center
11:04AM 29.7511 -81.6678 10° North 416 479 31,000 240 Level Jacksonville Center
11:05AM 29.8700 -81.6422 11° North 428 493 31,500 1,260 Climbing Jacksonville Center
11:06AM 29.9783 -81.6289 North 414 476 33,600 1,860 Climbing Jacksonville Center
11:07AM 30.0786 -81.6325 358° North 379 436 35,200 1,500 Climbing Jacksonville Center
11:08AM 30.1767 -81.6336 359° North 356 410 36,600 1,320 Climbing Jacksonville Center
11:09AM 30.2644 -81.6300 North 349 402 37,900 1,140 Climbing Jacksonville Center
11:10AM 30.3606 -81.6408 354° North 349 402 38,900 540 Climbing Jacksonville Center
11:11AM 30.4486 -81.6831 338° Northwest 336 387 39,000  Climbing Jacksonville Center
11:12AM 30.5494 -81.7300 338° Northwest 355 409 39,000  Level Jacksonville Center
11:13AM 30.6394 -81.7747 337° Northwest 366 421 39,000  Level Jacksonville Center
11:14AM 30.7381 -81.8219 338° Northwest 376 433 39,000  Level Jacksonville Center
11:15AM 30.8367 -81.8667 339° North 376 433 39,000  Level Jacksonville Center
11:16AM 30.9331 -81.9117 338° Northwest 376 433 39,000 240 Level Jacksonville Center
11:17AM 31.0294 -81.9567 338° Northwest 376 433 39,500 900 Climbing Jacksonville Center
11:18AM 31.1175 -82.0019 336° Northwest 363 418 40,800 720 Climbing Jacksonville Center
11:19AM 31.2075 -82.0447 338° Northwest 351 404 41,000 60 Climbing Jacksonville Center
11:20AM 31.3017 -82.0903 338° Northwest 351 404 41,000  Level Jacksonville Center
11:21AM 31.3981 -82.1331 339° North 363 418 41,000  Level Jacksonville Center
11:23AM 31.5703 -82.2133 338° Northwest 381 438 41,000  Level Atlanta Center
11:24AM 31.6711 -82.2600 339° North 381 438 41,000  Level Atlanta Center
11:25AM 31.7719 -82.3069 338° Northwest 387 445 41,000  Level Atlanta Center
11:26AM 31.8708 -82.3539 338° Northwest 387 445 41,000  Level Atlanta Center
11:27AM 31.9611 -82.3961 338° Northwest 387 445 41,000  Level Atlanta Center
11:28AM 32.0578 -82.4436 337° Northwest 382 440 41,000  Level Atlanta Center
11:29AM 32.1564 -82.4908 338° Northwest 382 440 41,000  Level Atlanta Center
11:30AM 32.2508 -82.5333 339° North 376 433 41,000  Level Atlanta Center
11:31AM 32.3494 -82.5833 337° Northwest 381 438 41,000  Level Atlanta Center
11:32AM 32.4503 -82.6308 338° Northwest 381 438 41,000  Level Atlanta Center
11:33AM 32.5447 -82.6786 337° Northwest 381 438 41,000  Level Atlanta Center
11:34AM 32.6433 -82.7289 337° Northwest 375 432 41,000  Level Atlanta Center
11:35AM 32.7419 -82.7744 339° North 375 432 41,000  Level Atlanta Center
11:36AM 32.8383 -82.8200 338° Northwest 380 437 41,000  Level Atlanta Center
11:37AM 32.9392 -82.8731 336° Northwest 380 437 41,000  Level Atlanta Center
11:38AM 33.0356 -82.9164 339° North 380 437 41,000  Level Atlanta Center
11:39AM 33.1361 -82.9672 337° Northwest 385 443 41,000  Level Atlanta Center
11:40AM 33.2328 -83.0156 337° Northwest 379 436 41,000  Level Atlanta Center
11:41AM 33.3311 -83.0642 338° Northwest 379 436 41,000  Level Atlanta Center
11:42AM 33.4297 -83.1103 339° North 379 436 41,000  Level Atlanta Center
11:43AM 33.5364 -83.1642 337° Northwest 379 436 41,000  Level Atlanta Center
11:44AM 33.6350 -83.2131 338° Northwest 379 436 41,000  Level Atlanta Center
11:45AM 33.7311 -83.2594 338° Northwest 379 436 41,000  Level Atlanta Center
11:46AM 33.8297 -83.3086 338° Northwest 379 436 41,000  Level Atlanta Center
11:47AM 33.9281 -83.3553 339° North 379 436 41,000  Level Atlanta Center
11:48AM 34.0264 -83.4047 337° Northwest 377 434 41,000  Level Atlanta Center
11:49AM 34.1225 -83.4542 337° Northwest 377 434 41,000  Level Atlanta Center
11:50AM 34.2208 -83.5036 337° Northwest 383 441 41,000  Level Atlanta Center
11:51AM 34.3172 -83.5508 338° Northwest 378 435 41,000  Level Atlanta Center
11:52AM 34.4156 -83.6031 336° Northwest 378 435 41,000  Level Atlanta Center
11:53AM 34.5136 -83.6506 338° Northwest 383 441 41,000  Level Atlanta Center
11:54AM 34.6097 -83.7031 336° Northwest 378 435 41,000  Level Atlanta Center
11:55AM 34.7081 -83.7508 338° Northwest 378 435 41,000  Level Atlanta Center
11:56AM 34.7958 -83.7933 338° Northwest 378 435 41,000  Level Atlanta Center
11:57AM 34.8919 -83.8439 337° Northwest 378 435 41,000  Level Atlanta Center
11:58AM 34.9881 -83.8994 335° Northwest 378 435 41,000  Level Atlanta Center
11:59AM 35.0861 -83.9475 338° Northwest 378 435 41,000  Level Atlanta Center
12:00PM 35.1819 -83.9981 337° Northwest 378 435 41,000  Level Atlanta Center
12:01PM 35.2822 -84.0514 337° Northwest 378 435 41,000  Level Atlanta Center
12:02PM 35.3803 -84.1025 337° Northwest 378 435 41,000  Level Atlanta Center
12:03PM 35.4783 -84.1508 338° Northwest 378 435 41,000 -240 Level Atlanta Center
12:04PM 35.5764 -84.2022 337° Northwest 378 435 40,600 -540 Descending Atlanta Center
12:05PM 35.6722 -84.2536 336° Northwest 378 435 40,000 -240 Descending Atlanta Center
12:07PM 35.8853 -84.3642 337° Northwest 382 440 40,000  Level Indianapolis Center
12:08PM 36.0014 -84.4256 337° Northwest 381 438 40,000  Level Indianapolis Center
12:09PM 36.0989 -84.4778 337° Northwest 383 441 40,000  Level Indianapolis Center
12:10PM 36.1958 -84.5292 337° Northwest 382 440 40,000  Level Indianapolis Center
12:11PM 36.2936 -84.5814 337° Northwest 383 441 40,000  Level Indianapolis Center
12:12PM 36.3908 -84.6339 337° Northwest 383 441 40,000  Level Indianapolis Center
12:13PM 36.4897 -84.6869 337° Northwest 385 443 40,000  Level Indianapolis Center
12:14PM 36.5878 -84.7397 337° Northwest 385 443 40,000  Level Indianapolis Center
12:15PM 36.7064 -84.8036 337° Northwest 387 445 40,000  Level Indianapolis Center
12:16PM 36.8061 -84.8575 337° Northwest 389 448 40,000  Level Indianapolis Center
12:18PM 36.9053 -84.9114 337° Northwest 389 448 40,000  Level Indianapolis Center
12:19PM 37.0039 -84.9664 336° Northwest 386 444 40,000  Level Indianapolis Center
12:20PM 37.1044 -85.0194 337° Northwest 386 444 40,000  Level Indianapolis Center
12:21PM 37.2036 -85.0742 336° Northwest 389 448 40,000  Level Indianapolis Center
12:22PM 37.3025 -85.1278 337° Northwest 385 443 40,000  Level Indianapolis Center
12:23PM 37.4189 -85.1925 336° Northwest 390 449 40,000  Level Indianapolis Center
12:24PM 37.5189 -85.2472 337° Northwest 390 449 40,000  Level Indianapolis Center
12:25PM 37.6186 -85.3042 336° Northwest 392 451 40,000 -60 Level Indianapolis Center
12:26PM 37.7178 -85.3606 336° Northwest 391 450 39,900 -780 Descending Indianapolis Center
12:27PM 37.7964 -85.4494 318° Northwest 380 437 38,500 -1,500 Descending Indianapolis Center
12:28PM 37.8833 -85.5447 319° Northwest 377 434 36,800 -1,260 Descending Indianapolis Center
12:29PM 37.9642 -85.6306 320° Northwest 377 434 35,900 -1,140 Descending Indianapolis Center
12:30PM 38.0686 -85.6833 338° Northwest 398 458 34,500 -1,380 Descending Indianapolis Center
12:31PM 38.1708 -85.7364 338° Northwest 398 458 33,100 -1,260 Descending Indianapolis Center
12:32PM 38.2736 -85.7906 338° Northwest 399 459 32,000 -540 Descending Indianapolis Center
12:33PM 38.3808 -85.8469 338° Northwest 413 475 32,000  Level Indianapolis Center
12:34PM 38.5144 -85.9181 337° Northwest 430 495 32,000  Level Indianapolis Center
12:35PM 38.6244 -85.9761 338° Northwest 428 493 32,000 -780 Level Indianapolis Center
12:36PM 38.7317 -86.0344 337° Northwest 423 487 30,500 -1,020 Descending Indianapolis Center
12:37PM 38.8344 -86.0886 338° Northwest 411 473 30,000 -300 Descending Indianapolis Center
12:38PM 38.9356 -86.1428 337° Northwest 401 461 30,000  Level Indianapolis Center
12:39PM 39.0397 -86.1981 338° Northwest 402 463 30,000  Level Indianapolis Center
12:40PM 39.1442 -86.2561 337° Northwest 407 468 30,000 -360 Level Indianapolis Center
12:41PM 39.2692 -86.3231 337° Northwest 407 468 29,300 -1,080 Descending Indianapolis Center
12:42PM 39.3714 -86.3786 337° Northwest 402 463 27,800 -1,440 Descending Indianapolis Center
12:43PM 39.4725 -86.4336 337° Northwest 395 455 26,400 -900 Descending Indianapolis Center
12:44PM 39.5711 -86.4886 337° Northwest 386 444 26,000 -240 Descending Indianapolis Center
12:45PM 39.6717 -86.5425 338° Northwest 386 444 26,000  Level Indianapolis Center
12:46PM 39.7722 -86.5992 337° Northwest 388 447 26,000  Level Indianapolis Center
12:47PM 39.8739 -86.6544 337° Northwest 392 451 26,000  Level Indianapolis Center
12:48PM 39.9772 -86.7114 337° Northwest 400 460 26,000 -540 Level Indianapolis Center
12:49PM 40.1006 -86.7797 337° Northwest 402 463 24,900 -1,320 Descending Indianapolis Center
12:50PM 40.1800 -86.8256 336° Northwest 396 456 23,600 -1,980 Descending Chicago Center
12:51PM 40.2789 -86.8814 337° Northwest 388 447 21,300 -2,220 Descending Chicago Center
12:52PM 40.3789 -86.9364 337° Northwest 390 449 19,100 -2,040 Descending Chicago Center
12:53PM 40.4717 -86.9894 336° Northwest 369 425 17,100 -1,920 Descending Chicago Center
12:54PM 40.5581 -87.0389 337° Northwest 345 397 15,200 -2,040 Descending Chicago Center
12:55PM 40.6617 -87.0967 337° Northwest 337 388 12,900 -2,040 Descending Chicago Center
12:57PM 40.7503 -87.1464 337° Northwest 334 384 11,100 -1,320 Descending Chicago Center
12:58PM 40.8294 -87.1911 337° Northwest 315 362 10,200 -960 Descending Chicago Center
01:04PM 41.2660 -87.2800 337° Northwest 100 115 4,500 -1,020 Descending FlightAware
01:04PM 41.2990 -87.2950 341° North 402 463 4,000 -600 Descending FlightAware
01:04PM 41.3430 -87.3110 345° North 402 463 4,000  Level FlightAware
01:06PM 41.4333 -87.2667 345° North 263 303 4,000 -240 Level Chicago TRACON
01:11PM 41.7920 -87.3940 345° North 402 463 2,700 -180 Descending FlightAware
01:12PM 41.8500 -87.4333 345° North 251 289 3,000 180 Climbing Chicago TRACON
01:13PM 41.9167 -87.4667 340° North 257 296 3,000  Level Chicago TRACON
01:14PM 41.9833 -87.5000 340° North 262 302 3,000  Level Chicago TRACON
01:15PM 42.0500 -87.5333 340° North 263 303 3,000  Level Chicago TRACON
01:16PM 42.1333 -87.5667 343° North 257 296 3,000  Level Chicago TRACON
01:17PM 42.1833 -87.6333 315° West 265 305 3,000 -300 Level Chicago TRACON
01:18PM 42.2167 -87.7167 298° West 256 295 2,400 -300 Descending Chicago TRACON
01:19PM 42.2667 -87.8000 309° West 262 302 2,400 -120 Level Chicago TRACON
01:19PM 42.2772 -87.8347 292° West 263 303 2,300 -120 Descending Chicago Center
01:20PM 42.2786 -87.9133 271° West 246 283 2,300  Level Chicago Center
01:21PM 42.2411 -87.9731 230° Southwest 236 272 2,300  Level Chicago Center
01:22PM 42.1906 -87.9422 156° South 213 245 2,400 60 Climbing Chicago Center
01:26PM 42.1143 -87.9015 166° South  Level Estimated